Time;durP1;ratioP1;P1;durP2;ratioP2;P2;SDS_P1;SDS_P2;PMS_P1;PMS_P2;Temp;Humidity;BMP_temperature;BMP_pressure;BME280_temperature;BME280_humidity;BME280_pressure;Samples;Min_cycle;Max_cycle;Signal;HPM_P1;HPM_P2
2020/12/10 00:01:05;;;;;;;52.53;25.80;;;;;;;-4.11;100.00;100114.89;1814197;78;21145;-71
2020/12/10 00:03:34;;;;;;;52.38;23.47;;;;;;;-4.13;100.00;100122.08;1743947;82;21617;-71
2020/12/10 00:06:06;;;;;;;40.08;23.57;;;;;;;-4.15;100.00;100120.08;1744001;82;21051;-71
2020/12/10 00:08:36;;;;;;;45.35;25.68;;;;;;;-4.16;100.00;100118.44;1743977;82;21145;-71
2020/12/10 00:11:09;;;;;;;42.93;25.30;;;;;;;-4.18;100.00;100121.69;1744799;81;21088;-71
2020/12/10 00:13:39;;;;;;;47.70;19.73;;;;;;;-4.19;100.00;100125.75;1754435;81;20931;-71
2020/12/10 00:16:12;;;;;;;50.20;26.02;;;;;;;-4.19;100.00;100120.05;1741285;81;21672;-71
2020/12/10 00:18:43;;;;;;;47.08;24.40;;;;;;;-4.21;100.00;100124.60;1786727;80;21007;-70
2020/12/10 00:21:17;;;;;;;48.60;24.30;;;;;;;-4.22;100.00;100124.24;1796178;78;21374;-71
2020/12/10 00:23:43;;;;;;;51.70;24.90;;;;;;;-4.21;100.00;100121.16;1792596;78;21015;-71
2020/12/10 00:26:13;;;;;;;46.77;24.72;;;;;;;-4.23;100.00;100114.74;1787047;80;20951;-71
2020/12/10 00:28:45;;;;;;;51.65;25.72;;;;;;;-4.26;100.00;100113.73;1786852;80;21490;-71
2020/12/10 00:31:16;;;;;;;53.00;25.70;;;;;;;-4.28;100.00;100112.22;1788599;78;20991;-71
2020/12/10 00:33:48;;;;;;;49.48;26.75;;;;;;;-4.30;100.00;100100.56;1729614;81;22642;-71
2020/12/10 00:36:16;;;;;;;45.23;25.52;;;;;;;-4.34;100.00;100101.31;1749468;82;21006;-71
2020/12/10 00:38:47;;;;;;;53.30;24.75;;;;;;;-4.36;100.00;100101.12;1787089;79;20983;-71
2020/12/10 00:41:17;;;;;;;44.98;22.07;;;;;;;-4.40;100.00;100091.42;1787022;80;21027;-72
2020/12/10 00:43:47;;;;;;;45.28;22.58;;;;;;;-4.41;100.00;100091.55;1791454;78;21075;-72
2020/12/10 00:46:42;;;;;;;46.58;26.07;;;;;;;-4.46;100.00;100087.23;1746186;82;21372;-72
2020/12/10 00:49:11;;;;;;;43.33;21.80;;;;;;;-4.49;100.00;100085.73;1793309;78;21010;-71
2020/12/10 00:51:40;;;;;;;48.38;23.20;;;;;;;-4.52;100.00;100088.64;1798244;78;21007;-71
2020/12/10 00:54:09;;;;;;;43.50;23.20;;;;;;;-4.56;100.00;100082.88;1839627;77;20963;-71
2020/12/10 00:56:40;;;;;;;52.75;24.23;;;;;;;-4.60;100.00;100071.52;1840040;78;21595;-71
2020/12/10 00:59:09;;;;;;;47.70;23.98;;;;;;;-4.62;100.00;100070.33;1832074;78;21386;-72
2020/12/10 01:01:43;;;;;;;46.18;23.32;;;;;;;-4.65;100.00;100074.55;1836838;78;21053;-71
2020/12/10 01:04:13;;;;;;;48.02;21.97;;;;;;;-4.70;100.00;100070.23;1834005;78;21050;-72
2020/12/10 01:06:45;;;;;;;48.02;22.05;;;;;;;-4.71;100.00;100079.53;1804332;78;21446;-72
2020/12/10 01:09:35;;;;;;;40.12;20.20;;;;;;;-4.72;100.00;100076.58;1783924;79;21026;-71
2020/12/10 01:12:05;;;;;;;43.10;21.40;;;;;;;-4.75;100.00;100079.00;1829534;78;21410;-71
2020/12/10 01:14:40;;;;;;;38.60;19.75;;;;;;;-4.79;100.00;100083.69;1804555;78;21169;-71
2020/12/10 01:17:10;;;;;;;37.63;19.27;;;;;;;-4.80;100.00;100085.97;1838207;77;21542;-71
2020/12/10 01:19:39;;;;;;;37.48;20.60;;;;;;;-4.81;100.00;100098.70;1817623;78;20987;-72
2020/12/10 01:22:10;;;;;;;39.18;20.95;;;;;;;-4.81;100.00;100101.81;1820219;78;21462;-71
2020/12/10 01:24:41;;;;;;;41.00;21.00;;;;;;;-4.83;100.00;100108.98;1829074;78;21026;-72
2020/12/10 01:27:20;;;;;;;47.93;22.48;;;;;;;-4.85;100.00;100101.74;1804722;78;21000;-71
2020/12/10 01:29:50;;;;;;;42.10;19.10;;;;;;;-4.89;100.00;100102.52;1829735;78;21622;-71
2020/12/10 01:32:27;;;;;;;37.38;20.72;;;;;;;-4.91;100.00;100109.69;1829959;78;20939;-72
2020/12/10 01:35:00;;;;;;;45.50;18.67;;;;;;;-4.95;100.00;100108.30;1825122;77;21119;-71
2020/12/10 01:37:31;;;;;;;41.25;21.25;;;;;;;-4.98;100.00;100095.50;1805657;79;22299;-71
2020/12/10 01:40:04;;;;;;;34.08;18.32;;;;;;;-5.02;100.00;100092.35;1839243;78;21010;-72
2020/12/10 01:42:37;;;;;;;38.98;18.20;;;;;;;-5.06;100.00;100089.66;1805791;79;21461;-71
2020/12/10 01:45:05;;;;;;;37.35;20.15;;;;;;;-5.10;100.00;100082.22;1838760;78;21131;-71
2020/12/10 01:47:33;;;;;;;;;;;;;;;-5.14;100.00;100076.91;1832977;78;21055;-71
2020/12/10 01:50:03;;;;;;;;;;;;;;;-5.19;100.00;100078.67;1790950;79;21619;-71
2020/12/10 01:52:31;;;;;;;32.95;19.92;;;;;;;-5.24;100.00;100080.39;1758219;80;20135;-73
2020/12/10 01:55:03;;;;;;;41.50;19.20;;;;;;;-5.31;100.00;100070.62;1761698;81;20957;-72
2020/12/10 01:57:32;;;;;;;41.88;20.17;;;;;;;-5.36;100.00;100079.34;1761682;80;21005;-72
2020/12/10 02:00:04;;;;;;;35.85;20.92;;;;;;;-5.40;100.00;100069.16;1794457;80;20912;-72
2020/12/10 02:02:35;;;;;;;36.80;21.25;;;;;;;-5.41;100.00;100077.98;1792229;78;21437;-71
2020/12/10 02:05:05;;;;;;;34.88;19.50;;;;;;;-5.45;100.00;100072.67;1788293;80;20928;-72
2020/12/10 02:07:33;;;;;;;34.85;18.73;;;;;;;-5.47;100.00;100073.28;1788318;80;20999;-72
2020/12/10 02:10:06;;;;;;;36.03;20.15;;;;;;;-5.50;100.00;100060.48;1788219;80;20967;-72
2020/12/10 02:12:40;;;;;;;44.00;21.80;;;;;;;-5.53;100.00;100073.03;1789054;78;21636;-71
2020/12/10 02:15:09;;;;;;;38.65;17.98;;;;;;;-5.55;100.00;100064.00;1789389;78;21364;-71
2020/12/10 02:17:38;;;;;;;41.10;20.72;;;;;;;-5.60;100.00;100060.48;1791493;78;21039;-72
2020/12/10 02:20:08;;;;;;;46.53;20.00;;;;;;;-5.63;100.00;100052.92;1792580;78;21063;-71
2020/12/10 02:22:37;;;;;;;41.80;19.32;;;;;;;-5.67;100.00;100050.71;1791047;78;21497;-71
2020/12/10 02:25:05;;;;;;;37.00;20.95;;;;;;;-5.68;100.00;100052.99;1793003;80;20915;-71
2020/12/10 02:27:34;;;;;;;40.88;20.15;;;;;;;-5.70;100.00;100051.81;1792990;80;22075;-71
2020/12/10 02:30:02;;;;;;;43.85;19.55;;;;;;;-5.72;100.00;100048.50;1792667;78;20999;-71
2020/12/10 02:32:31;;;;;;;48.45;19.80;;;;;;;-5.73;100.00;100052.55;1783113;79;26372;-71
2020/12/10 02:35:04;;;;;;;38.13;19.82;;;;;;;-5.75;100.00;100032.27;1782822;80;21512;-71
2020/12/10 02:37:33;;;;;;;41.58;22.58;;;;;;;-5.82;100.00;100039.83;1782602;80;20979;-72
2020/12/10 02:40:02;;;;;;;35.13;19.30;;;;;;;-5.85;100.00;100026.55;1782649;78;20991;-71
2020/12/10 02:42:34;;;;;;;38.78;20.82;;;;;;;-5.83;100.00;100036.85;1793410;80;21002;-72
2020/12/10 02:45:02;;;;;;;34.85;20.43;;;;;;;-5.87;100.00;100031.57;1793654;79;21019;-71
2020/12/10 02:47:30;;;;;;;;;;;;;;;-5.89;100.00;100038.72;1797080;79;21133;-71
2020/12/10 02:50:03;;;;;;;34.50;19.80;;;;;;;-5.90;100.00;100029.23;1809332;79;20156;-72
2020/12/10 02:52:33;;;;;;;45.05;22.22;;;;;;;-5.91;100.00;100029.69;1804434;78;21175;-71
2020/12/10 02:55:03;;;;;;;37.05;18.60;;;;;;;-5.93;100.00;100023.77;1835445;76;20987;-71
2020/12/10 02:57:36;;;;;;;41.92;21.00;;;;;;;-5.95;100.00;100017.91;1793178;79;21127;-72
2020/12/10 03:00:10;;;;;;;38.08;19.87;;;;;;;-5.96;100.00;100022.77;1801600;78;20924;-71
2020/12/10 03:02:39;;;;;;;47.78;19.30;;;;;;;-5.98;100.00;100014.72;1805635;79;21197;-72
2020/12/10 03:05:08;;;;;;;37.95;19.35;;;;;;;-6.00;100.00;100004.88;1807464;78;21588;-72
2020/12/10 03:07:37;;;;;;;43.45;19.65;;;;;;;-6.02;100.00;99995.89;1806819;79;20943;-72
2020/12/10 03:10:09;;;;;;;32.53;16.85;;;;;;;-6.02;100.00;99995.89;1806913;79;20908;-72
2020/12/10 03:12:41;;;;;;;29.85;16.02;;;;;;;-6.03;100.00;99991.60;1805402;78;20937;-72
2020/12/10 03:15:09;;;;;;;35.40;18.75;;;;;;;-6.02;100.00;99984.61;1782409;80;21162;-72
2020/12/10 03:17:39;;;;;;;40.70;18.55;;;;;;;-6.03;100.00;99986.37;1782450;80;21194;-72
2020/12/10 03:20:09;;;;;;;38.85;20.92;;;;;;;-6.04;100.00;99991.27;1782445;80;21516;-72
2020/12/10 03:22:41;;;;;;;47.90;20.48;;;;;;;-6.07;100.00;99982.41;1782306;78;21194;-71
2020/12/10 03:25:10;;;;;;;54.55;22.58;;;;;;;-6.11;100.00;99990.98;1778769;78;21167;-72
2020/12/10 03:27:43;;;;;;;40.55;19.70;;;;;;;-6.14;100.00;99998.28;1787847;80;21145;-72
2020/12/10 03:30:17;;;;;;;38.02;21.17;;;;;;;-6.16;100.00;99983.20;1808391;79;21321;-71
2020/12/10 03:32:51;;;;;;;36.55;21.12;;;;;;;-6.14;100.00;99983.42;1780244;80;20943;-72
2020/12/10 03:35:23;;;;;;;39.45;21.75;;;;;;;-6.15;100.00;99973.94;1818267;77;21135;-72
2020/12/10 03:38:03;;;;;;;38.48;20.88;;;;;;;-6.10;100.00;99980.89;1816757;77;28356;-72
2020/12/10 03:40:31;;;;;;;;;;;;;;;-6.13;100.00;99989.47;1783127;78;20963;-70
2020/12/10 03:43:02;;;;;;;37.95;17.40;;;;;;;-6.14;100.00;99985.21;1758277;78;21223;-71
2020/12/10 03:45:36;;;;;;;36.50;19.45;;;;;;;-6.16;100.00;99980.59;1814432;78;20943;-70
2020/12/10 03:48:05;;;;;;;34.48;17.62;;;;;;;-6.20;100.00;99981.33;1819919;78;21026;-71
2020/12/10 03:50:33;;;;;;;;;;;;;;;-6.19;100.00;99979.56;1751773;81;20896;-71
2020/12/10 03:53:05;;;;;;;35.28;20.48;;;;;;;-6.22;100.00;99972.83;1736327;80;20142;-71
2020/12/10 03:55:37;;;;;;;48.70;21.12;;;;;;;-6.20;100.00;99977.90;1756366;81;21205;-71
2020/12/10 03:58:06;;;;;;;35.95;18.30;;;;;;;-6.21;100.00;99981.00;1756458;81;20999;-70
2020/12/10 04:00:38;;;;;;;37.33;19.12;;;;;;;-6.20;100.00;99985.73;1756542;81;21603;-71
2020/12/10 04:06:08;;;;;;;44.85;24.45;;;;;;;-6.18;100.00;99966.84;1871580;75;28289;-71
2020/12/10 04:08:47;;;;;;;;;;;;;;;;;;;;;
2020/12/10 04:11:21;;;;;;;44.35;20.62;;;;;;;-6.23;100.00;99971.16;1852241;77;28369;-70
2020/12/10 04:13:49;;;;;;;;;;;;;;;-6.25;100.00;99970.46;1800841;78;21529;-71
2020/12/10 04:16:20;;;;;;;40.78;21.55;;;;;;;-6.26;100.00;99963.59;1787686;78;26392;-71
2020/12/10 04:18:54;;;;;;;51.05;26.40;;;;;;;-6.26;100.00;99964.42;1787582;80;20994;-71
2020/12/10 04:21:28;;;;;;;58.35;26.25;;;;;;;-6.26;100.00;99962.30;1787628;80;20936;-71
2020/12/10 04:23:58;;;;;;;45.10;21.55;;;;;;;-6.26;100.00;99955.77;1769139;80;21189;-71
2020/12/10 04:26:28;;;;;;;42.70;24.85;;;;;;;-6.27;100.00;99949.72;1799521;78;21011;-70
2020/12/10 04:28:57;;;;;;;45.23;25.12;;;;;;;-6.28;100.00;99945.92;1717977;81;22346;-71
2020/12/10 04:31:25;;;;;;;46.00;25.08;;;;;;;-6.28;100.00;99941.52;1787672;80;20943;-70
2020/12/10 04:33:56;;;;;;;45.78;20.37;;;;;;;-6.27;100.00;99924.89;1794733;78;20889;-71
2020/12/10 04:36:27;;;;;;;;;;;;;;;-6.23;100.00;99929.35;1755361;81;21474;-71
2020/12/10 04:39:00;;;;;;;47.25;20.30;;;;;;;-6.20;100.00;99932.17;1744586;82;20150;-72
2020/12/10 04:41:30;;;;;;;42.15;25.50;;;;;;;-6.19;100.00;99923.39;1799927;78;21452;-70
2020/12/10 04:44:01;;;;;;;45.58;23.85;;;;;;;-6.18;100.00;99928.46;1814774;78;20999;-71
2020/12/10 04:46:34;;;;;;;41.90;22.13;;;;;;;-6.16;100.00;99921.31;1780993;80;21007;-71
2020/12/10 04:49:02;;;;;;;40.88;23.32;;;;;;;-6.16;100.00;99922.63;1815145;78;20920;-70
2020/12/10 04:51:35;;;;;;;;;;;;;;;-6.15;100.00;99928.66;1783332;80;21134;-70
2020/12/10 04:54:08;;;;;;;46.73;22.85;;;;;;;-6.14;100.00;99923.80;1756994;80;21266;-70
2020/12/10 04:56:41;;;;;;;43.70;21.90;;;;;;;-6.14;100.00;99918.09;1780214;78;21045;-71
2020/12/10 04:59:10;;;;;;;47.35;23.22;;;;;;;-6.13;100.00;99927.56;1780901;80;21548;-70
2020/12/10 05:01:38;;;;;;;50.58;22.60;;;;;;;-6.13;100.00;99919.72;1819865;78;20995;-71
2020/12/10 05:04:09;;;;;;;47.45;23.98;;;;;;;-6.11;100.00;99913.89;1770117;80;21568;-71
2020/12/10 05:06:49;;;;;;;47.25;25.55;;;;;;;-6.10;100.00;99916.01;1790023;79;21351;-70
2020/12/10 05:09:20;;;;;;;42.48;20.97;;;;;;;-6.08;100.00;99915.40;1787320;79;21083;-71
2020/12/10 05:11:54;;;;;;;60.73;25.00;;;;;;;-6.06;100.00;99914.30;1787573;79;21007;-72
2020/12/10 05:14:46;;;;;;;52.78;24.87;;;;;;;-6.04;100.00;99915.47;1791558;78;21090;-70
2020/12/10 05:17:16;;;;;;;50.08;21.70;;;;;;;-6.01;100.00;99909.14;1787728;80;20873;-71
2020/12/10 05:19:45;;;;;;;53.35;28.87;;;;;;;-5.98;100.00;99908.86;1787686;80;21524;-71
2020/12/10 05:22:16;;;;;;;44.60;23.57;;;;;;;-5.95;100.00;99913.34;1733131;80;20932;-73
2020/12/10 05:25:02;;;;;;;42.27;23.38;;;;;;;-5.92;100.00;99908.29;1792051;78;21623;-70
2020/12/10 05:27:32;;;;;;;57.33;25.75;;;;;;;-5.89;100.00;99919.77;1819270;78;20995;-71
2020/12/10 05:30:02;;;;;;;55.65;28.40;;;;;;;-5.88;100.00;99922.25;1780448;80;21521;-72
2020/12/10 05:32:42;;;;;;;55.70;23.42;;;;;;;-5.87;100.00;99913.44;1788401;78;21194;-72
2020/12/10 05:35:23;;;;;;;50.67;25.48;;;;;;;-5.85;100.00;99924.59;1810789;78;20928;-72
2020/12/10 05:37:55;;;;;;;61.88;26.48;;;;;;;-5.82;100.00;99915.15;1802221;78;20967;-72
2020/12/10 05:40:23;;;;;;;56.53;27.10;;;;;;;-5.80;100.00;99914.20;1780555;80;21483;-72
2020/12/10 05:42:57;;;;;;;49.98;25.10;;;;;;;-5.79;100.00;99909.30;1819196;78;21063;-72
2020/12/10 05:45:27;;;;;;;50.67;22.07;;;;;;;-5.77;100.00;99902.15;1774447;80;21194;-72
2020/12/10 05:47:59;;;;;;;62.03;29.05;;;;;;;-5.76;100.00;99907.22;1791408;78;21126;-72
2020/12/10 05:50:30;;;;;;;57.70;30.82;;;;;;;-5.75;100.00;99897.13;1793079;78;21043;-72
2020/12/10 05:53:10;;;;;;;68.30;29.35;;;;;;;-5.73;100.00;99903.50;1785255;80;21695;-72
2020/12/10 05:55:45;;;;;;;58.02;24.23;;;;;;;-5.70;100.00;99904.06;1791685;78;21098;-72
2020/12/10 05:58:15;;;;;;;74.45;32.58;;;;;;;-5.68;100.00;99904.75;1776043;78;21481;-73
2020/12/10 06:00:45;;;;;;;80.70;34.15;;;;;;;-5.66;100.00;99909.36;1783738;80;21192;-72
2020/12/10 06:03:14;;;;;;;71.87;31.95;;;;;;;-5.66;100.00;99900.21;1784847;79;21128;-72
2020/12/10 06:06:10;;;;;;;87.50;39.42;;;;;;;-5.67;100.00;99899.84;1778909;80;21132;-72
2020/12/10 06:12:27;;;;;;;73.33;32.67;;;;;;;-5.66;100.00;99898.05;1795311;78;21047;-70
2020/12/10 06:14:58;;;;;;;60.03;24.70;;;;;;;-5.65;100.00;99901.84;1798041;79;21566;-72
2020/12/10 06:17:30;;;;;;;80.07;32.78;;;;;;;-5.65;100.00;99901.84;1803800;79;21300;-72
2020/12/10 06:41:34;;;;;;;140.25;49.23;;;;;;;-5.57;100.00;99883.31;1791892;79;21122;-70
2020/12/10 06:44:05;;;;;;;60.60;30.75;;;;;;;-5.60;100.00;99890.97;1809667;79;21458;-71
2020/12/10 06:47:06;;;;;;;74.50;35.55;;;;;;;-5.59;100.00;99891.30;1807071;79;22330;-72
2020/12/10 06:49:59;;;;;;;79.32;38.15;;;;;;;-5.57;100.00;99893.78;1792912;79;22045;-72
2020/12/10 06:52:28;;;;;;;65.50;29.30;;;;;;;-5.57;100.00;99887.24;1797505;79;21453;-72
2020/12/10 06:55:10;;;;;;;57.10;28.02;;;;;;;-5.57;100.00;99895.09;1790052;79;25097;-72
2020/12/10 06:58:05;;;;;;;65.37;31.75;;;;;;;-5.57;100.00;99880.22;1793969;79;21457;-71
2020/12/10 07:00:53;;;;;;;52.80;28.98;;;;;;;-5.55;100.00;99884.00;1792333;79;22224;-72
2020/12/10 07:12:42;;;;;;;51.23;23.62;;;;;;;-5.54;100.00;99883.03;1747449;79;21938;-71
2020/12/10 07:27:27;;;;;;;56.13;28.55;;;;;;;-5.47;100.00;99882.31;1648293;84;21279;-71
2020/12/10 07:29:58;;;;;;;51.40;25.82;;;;;;;-5.48;100.00;99876.75;1670911;85;21255;-70
2020/12/10 07:33:15;;;;;;;54.63;23.85;;;;;;;-5.48;100.00;99864.98;1658395;85;21485;-72
2020/12/10 07:35:44;;;;;;;53.63;29.27;;;;;;;-5.48;100.00;99851.90;1669739;85;21467;-72
2020/12/10 07:38:14;;;;;;;85.85;32.70;;;;;;;-5.46;100.00;99853.89;1644833;85;21614;-70
2020/12/10 09:23:18;;;;;;;65.22;26.48;;;;;;;-4.46;100.00;99827.33;1826630;77;21461;-71
2020/12/10 09:25:47;;;;;;;50.52;22.77;;;;;;;-4.44;100.00;99845.53;1836934;78;22278;-71
2020/12/10 09:28:16;;;;;;;64.37;28.15;;;;;;;-4.43;100.00;99841.47;1836490;77;20897;-72
2020/12/10 09:30:45;;;;;;;65.92;25.57;;;;;;;-4.39;100.00;99840.17;1836985;77;21151;-72
2020/12/10 09:33:14;;;;;;;64.53;27.15;;;;;;;-4.36;100.00;99847.76;1836956;77;21061;-72
2020/12/10 09:35:44;;;;;;;54.75;24.15;;;;;;;-4.39;100.00;99837.55;1836490;77;21169;-72
2020/12/10 09:38:14;;;;;;;75.45;31.37;;;;;;;-4.42;100.00;99830.00;1835245;78;21201;-72
2020/12/10 09:40:43;;;;;;;70.87;31.25;;;;;;;-4.44;100.00;99826.70;1796049;79;21090;-72
2020/12/10 09:43:12;;;;;;;;;;;;;;;-4.48;100.00;99811.42;1838844;77;21019;-71
2020/12/10 09:45:53;;;;;;;;;;;;;;;;;;;;;
2020/12/10 10:00:06;;;;;;;67.55;30.37;;;;;;;-4.40;100.00;99825.93;1826774;78;21036;-72
2020/12/10 10:02:44;;;;;;;79.90;35.00;;;;;;;-4.48;100.00;99817.52;1832062;77;21082;-71
2020/12/10 10:05:13;;;;;;;87.60;40.35;;;;;;;-4.48;100.00;99804.88;1833828;78;21454;-71
2020/12/10 10:07:43;;;;;;;81.12;37.13;;;;;;;-4.49;100.00;99800.12;1807116;78;21211;-71
2020/12/10 10:10:13;;;;;;;74.72;34.45;;;;;;;-4.48;100.00;99797.02;1793948;79;21115;-70
2020/12/10 10:12:41;;;;;;;73.55;35.00;;;;;;;-4.48;100.00;99791.78;1796693;79;21114;-73
2020/12/10 10:15:11;;;;;;;83.05;37.53;;;;;;;-4.49;100.00;99788.34;1796792;79;21123;-69
2020/12/10 10:17:40;;;;;;;67.90;27.65;;;;;;;-4.45;100.00;99781.02;1796498;79;21115;-71
2020/12/10 10:20:10;;;;;;;169.00;62.43;;;;;;;-4.46;100.00;99781.48;1796690;79;21189;-71
2020/12/10 10:22:41;;;;;;;75.08;34.53;;;;;;;-4.45;100.00;99780.52;1796898;79;21131;-71
2020/12/10 10:25:09;;;;;;;69.05;27.62;;;;;;;-4.41;100.00;99768.77;1793562;79;21119;-70
2020/12/10 10:27:37;;;;;;;72.87;33.83;;;;;;;-4.40;100.00;99786.63;1791119;80;21158;-70
2020/12/10 10:30:08;;;;;;;83.07;36.95;;;;;;;-4.37;100.00;99781.08;1791694;79;20996;-69
2020/12/10 10:32:37;;;;;;;67.05;30.70;;;;;;;-4.37;100.00;99773.21;1791828;79;22193;-71
2020/12/10 10:35:06;;;;;;;64.97;30.62;;;;;;;-4.43;100.00;99764.66;1791828;80;20964;-70
2020/12/10 10:37:35;;;;;;;71.00;31.68;;;;;;;-4.38;100.00;99770.27;1792119;79;20925;-70
2020/12/10 10:40:07;;;;;;;71.75;32.08;;;;;;;-4.37;100.00;99760.92;1791986;80;21807;-70
2020/12/10 10:42:41;;;;;;;92.08;43.10;;;;;;;-4.34;100.00;99760.61;1791905;79;21147;-70
2020/12/10 10:45:11;;;;;;;95.12;38.85;;;;;;;-4.34;100.00;99757.98;1791694;80;21253;-69
2020/12/10 10:47:45;;;;;;;68.22;31.30;;;;;;;-4.27;100.00;99760.02;1767319;80;21608;-71
2020/12/10 11:18:05;;;;;;;56.60;25.37;;;;;;;-4.13;100.00;99756.34;1769831;79;21098;-72
2020/12/10 11:20:35;;;;;;;75.55;32.15;;;;;;;-4.16;100.00;99752.73;1776199;80;21187;-71
2020/12/10 11:23:07;;;;;;;70.42;33.18;;;;;;;-4.16;100.00;99747.98;1767447;79;21039;-71
2020/12/10 11:25:41;;;;;;;89.22;36.85;;;;;;;-4.17;100.00;99754.19;1764785;80;21122;-72
2020/12/10 11:28:10;;;;;;;80.90;34.90;;;;;;;-4.18;100.00;99745.50;1792107;79;21605;-73
2020/12/10 11:30:43;;;;;;;78.57;34.88;;;;;;;-4.18;100.00;99743.38;1803346;79;21795;-71
2020/12/10 11:33:11;;;;;;;85.22;40.52;;;;;;;-4.18;100.00;99731.58;1809047;79;21117;-70
2020/12/10 11:35:56;;;;;;;97.42;41.23;;;;;;;-4.22;100.00;99736.29;1792515;79;21041;-71
2020/12/10 11:38:27;;;;;;;292.73;113.92;;;;;;;-4.25;100.00;99731.36;1791261;79;21110;-72
2020/12/10 11:40:56;;;;;;;233.02;73.78;;;;;;;-4.26;100.00;99736.75;1790272;79;20917;-72
2020/12/10 11:43:27;;;;;;;93.85;39.60;;;;;;;-4.31;100.00;99730.19;1784171;79;21147;-72
2020/12/10 11:45:55;;;;;;;175.47;64.72;;;;;;;-4.39;100.00;99722.25;1768406;79;21302;-77
2020/12/10 14:07:20;;;;;;;56.85;30.20;;;;;;;-4.61;100.00;99599.14;1734292;80;21478;-73
2020/12/10 14:09:54;;;;;;;66.25;37.73;;;;;;;-4.60;100.00;99589.02;1762454;80;22245;-72
2020/12/10 14:12:51;;;;;;;89.72;45.92;;;;;;;-4.57;100.00;99593.93;1608573;87;21732;-72
2020/12/10 14:15:26;;;;;;;55.45;29.82;;;;;;;-4.56;100.00;99593.44;1609418;88;21362;-73
2020/12/10 14:18:01;;;;;;;57.30;31.62;;;;;;;-4.55;100.00;99594.60;1623661;88;21226;-73
2020/12/10 16:16:54;;;;;;;33.48;20.25;;;;;;;-3.31;100.00;99532.30;1707995;80;21371;-73
2020/12/10 16:42:23;;;;;;;28.98;17.55;;;;;;;-3.21;100.00;99532.14;1537539;91;21212;-73
2020/12/10 16:44:59;;;;;;;34.18;20.50;;;;;;;-3.21;100.00;99534.77;1856972;75;28692;-72
2020/12/10 16:47:31;;;;;;;75.90;35.75;;;;;;;-3.27;100.00;99539.38;1795586;78;21133;-73
2020/12/10 16:50:13;;;;;;;29.07;15.25;;;;;;;-3.23;100.00;99548.58;1801801;78;21418;-72
2020/12/10 16:53:00;;;;;;;38.08;20.77;;;;;;;-3.18;100.00;99524.45;1793203;78;21045;-71
2020/12/10 16:55:35;;;;;;;;;;;;;;;-3.19;100.00;99547.73;1792253;77;21174;-73
2020/12/10 16:58:39;;;;;;;73.65;31.23;;;;;;;-3.20;100.00;99546.11;1802853;77;20159;-71
2020/12/10 17:01:54;;;;;;;33.88;17.90;;;;;;;-3.21;100.00;99547.89;1777992;77;21478;-73
2020/12/10 17:04:31;;;;;;;23.42;12.47;;;;;;;-3.21;100.00;99554.95;1742684;81;21221;-74
2020/12/10 17:06:59;;;;;;;31.12;17.48;;;;;;;-3.22;100.00;99546.76;1733549;81;20999;-71
2020/12/10 17:09:33;;;;;;;24.57;13.70;;;;;;;-3.20;100.00;99537.73;1708419;82;21059;-74
2020/12/10 17:12:17;;;;;;;26.05;14.75;;;;;;;-3.20;100.00;99544.30;1724347;82;21122;-74
2020/12/10 17:15:06;;;;;;;31.23;15.88;;;;;;;-3.17;100.00;99551.84;1658312;84;21584;-72
2020/12/10 17:17:47;;;;;;;29.12;15.80;;;;;;;-3.15;100.00;99555.62;1690178;83;21260;-73
2020/12/10 17:21:27;;;;;;;35.55;18.98;;;;;;;-3.17;100.00;99545.27;1607057;88;21705;-73
2020/12/10 17:25:18;;;;;;;21.45;11.28;;;;;;;-3.07;100.00;99545.10;1868620;76;28208;-73
2020/12/10 17:37:17;;;;;;;26.30;14.60;;;;;;;-3.10;100.00;99545.44;1834588;77;21031;-73
2020/12/10 17:39:53;;;;;;;27.15;15.85;;;;;;;-3.12;100.00;99548.22;1752703;80;21476;-72
2020/12/10 17:42:26;;;;;;;24.82;16.27;;;;;;;-3.11;100.00;99543.31;1767058;79;21528;-72
2020/12/10 17:44:56;;;;;;;20.72;12.30;;;;;;;-3.09;100.00;99540.50;1740790;81;21216;-72
2020/12/10 17:47:32;;;;;;;32.58;18.25;;;;;;;-3.09;100.00;99530.00;1764841;80;21155;-72
2020/12/10 17:50:03;;;;;;;31.05;17.10;;;;;;;-3.08;100.00;99525.91;1778464;79;21071;-72
2020/12/10 17:52:42;;;;;;;28.65;16.70;;;;;;;-3.06;100.00;99527.87;1791592;79;21008;-71
2020/12/10 17:55:18;;;;;;;;;;;;;;;-3.05;100.00;99524.25;1798187;79;20937;-72
2020/12/10 17:57:48;;;;;;;28.90;16.40;;;;;;;-3.06;100.00;99513.94;1762613;79;20232;-73
2020/12/10 18:00:24;;;;;;;28.45;15.83;;;;;;;-3.07;100.00;99518.34;1794334;79;21205;-71
2020/12/10 18:02:54;;;;;;;37.53;22.75;;;;;;;-3.07;100.00;99520.97;1762219;79;21221;-73
2020/12/10 18:05:59;;;;;;;25.17;14.38;;;;;;;-3.07;100.00;99522.78;1793094;79;21007;-72
2020/12/10 18:08:28;;;;;;;22.65;14.05;;;;;;;-3.10;100.00;99520.49;1795716;79;21158;-72
2020/12/10 18:11:41;;;;;;;29.75;17.20;;;;;;;-3.09;100.00;99516.87;1790833;79;21515;-72
2020/12/10 18:14:11;;;;;;;25.27;13.85;;;;;;;-3.10;100.00;99513.93;1794085;79;22241;-71
2020/12/10 18:16:51;;;;;;;26.73;13.70;;;;;;;-3.07;100.00;99506.52;1766749;79;21087;-71
2020/12/10 18:19:20;;;;;;;33.55;16.93;;;;;;;-3.04;100.00;99514.09;1796389;79;21569;-72
2020/12/10 18:21:51;;;;;;;30.45;18.27;;;;;;;-3.01;100.00;99518.19;1796047;79;21597;-72
2020/12/10 18:24:20;;;;;;;28.38;15.00;;;;;;;-3.00;100.00;99517.19;1795618;79;21628;-71
2020/12/10 18:27:04;;;;;;;32.90;19.15;;;;;;;-2.98;100.00;99523.10;1792435;79;21146;-71
2020/12/10 18:30:09;;;;;;;32.75;16.62;;;;;;;-2.96;100.00;99513.25;1781891;78;21214;-72
2020/12/10 18:37:05;;;;;;;36.08;18.02;;;;;;;-2.93;100.00;99511.60;1695235;84;21153;-68
2020/12/10 18:39:34;;;;;;;33.90;19.37;;;;;;;-2.90;100.00;99519.63;1673301;84;21580;-70
2020/12/10 18:42:16;;;;;;;33.50;15.93;;;;;;;-2.84;100.00;99512.41;1788182;78;28178;-70
2020/12/10 18:44:48;;;;;;;25.05;14.43;;;;;;;-2.85;100.00;99522.58;1789800;80;20999;-69
2020/12/10 18:47:21;;;;;;;28.83;17.65;;;;;;;-2.82;100.00;99520.45;1789903;80;21203;-70
2020/12/10 18:49:54;;;;;;;31.73;17.57;;;;;;;-2.79;100.00;99523.23;1788717;80;20966;-69
2020/12/10 18:52:25;;;;;;;28.35;14.73;;;;;;;-2.77;100.00;99523.86;1796102;78;21607;-70
2020/12/10 18:54:55;;;;;;;29.25;15.60;;;;;;;-2.72;100.00;99516.32;1777771;79;21022;-70
2020/12/10 18:57:24;;;;;;;33.23;17.15;;;;;;;-2.69;100.00;99517.29;1777746;79;21462;-70
2020/12/10 18:59:54;;;;;;;36.50;18.80;;;;;;;-2.66;100.00;99512.19;1795030;79;22425;-72
2020/12/10 19:02:28;;;;;;;24.75;16.10;;;;;;;-2.65;100.00;99517.76;1795202;79;21632;-71
2020/12/10 19:04:57;;;;;;;41.02;19.85;;;;;;;-2.60;100.00;99511.03;1795288;79;21592;-70
2020/12/10 19:07:35;;;;;;;39.55;19.77;;;;;;;-2.56;100.00;99512.00;1794552;79;20975;-72
2020/12/10 19:10:06;;;;;;;47.62;23.87;;;;;;;-2.52;100.00;99508.86;1795735;79;20908;-71
2020/12/10 19:12:40;;;;;;;27.07;14.83;;;;;;;-2.48;100.00;99506.70;1794587;79;22245;-71
2020/12/10 19:15:12;;;;;;;25.92;15.28;;;;;;;-2.42;100.00;99504.72;1795400;79;20971;-70
2020/12/10 19:17:46;;;;;;;23.45;14.30;;;;;;;-2.36;100.00;99498.76;1795386;79;21081;-70
2020/12/10 19:20:16;;;;;;;34.73;18.62;;;;;;;-2.29;100.00;99504.16;1795832;79;21611;-69
2020/12/10 19:22:53;;;;;;;30.02;17.15;;;;;;;-2.24;100.00;99503.14;1796265;79;21129;-71
2020/12/10 19:25:22;;;;;;;32.60;20.55;;;;;;;-2.19;100.00;99508.20;1795824;79;21560;-71
2020/12/10 19:27:53;;;;;;;22.35;12.15;;;;;;;-2.12;100.00;99514.91;1778087;79;21070;-71
2020/12/10 19:30:25;;;;;;;26.30;16.07;;;;;;;-2.06;100.00;99510.77;1794465;79;20888;-70
2020/12/10 19:32:56;;;;;;;37.93;20.50;;;;;;;-2.01;100.00;99505.80;1794786;79;21141;-71
2020/12/10 19:35:33;;;;;;;16.90;12.05;;;;;;;-1.96;100.00;99500.36;1795336;79;21168;-70
2020/12/10 19:38:02;;;;;;;86.22;35.33;;;;;;;-1.92;100.00;99500.82;1795352;79;21137;-70
2020/12/10 19:40:34;;;;;;;25.12;14.90;;;;;;;-1.87;100.00;99510.83;1794138;79;21204;-72
2020/12/10 19:43:02;;;;;;;20.68;13.00;;;;;;;-1.85;100.00;99512.29;1791383;80;28281;-72
2020/12/10 19:45:45;;;;;;;16.75;10.93;;;;;;;-1.80;100.00;99485.45;1791083;79;21122;-72